createdAt,value
2023-05-06T00:03:17.324Z,100.00
2023-05-06T00:08:19.167Z,100.00
2023-05-06T00:13:23.126Z,100.00
2023-05-06T00:18:24.900Z,100.00
2023-05-06T00:23:26.706Z,100.00
2023-05-06T00:28:33.221Z,100.00
2023-05-06T00:33:37.213Z,100.00
2023-05-06T00:38:43.750Z,100.00
2023-05-06T00:43:45.650Z,100.00
2023-05-06T00:48:49.866Z,100.00
2023-05-06T00:53:51.696Z,100.00
2023-05-06T00:58:54.441Z,100.00
2023-05-06T01:03:58.661Z,100.00
2023-05-06T01:09:20.976Z,100.00
2023-05-06T01:14:39.216Z,100.00
2023-05-06T01:19:53.525Z,100.00
2023-05-06T01:24:55.359Z,100.00
2023-05-06T01:29:58.184Z,100.00
2023-05-06T01:35:15.926Z,100.00
2023-05-06T01:40:18.056Z,100.00
2023-05-06T01:45:23.281Z,100.00
2023-05-06T01:50:25.992Z,100.00
2023-05-06T01:55:32.208Z,100.00
2023-05-06T02:00:38.203Z,100.00
2023-05-06T02:05:42.671Z,100.00
2023-05-06T02:10:48.054Z,100.00
2023-05-06T02:15:56.900Z,100.00
2023-05-06T02:21:03.835Z,100.00
2023-05-06T02:26:08.492Z,100.00
2023-05-06T02:31:14.464Z,100.00
2023-05-06T02:36:18.326Z,100.00
2023-05-06T02:41:22.363Z,100.00
2023-05-06T02:46:26.587Z,100.00
2023-05-06T02:51:32.862Z,100.00
2023-05-06T02:56:40.187Z,100.00
2023-05-06T03:01:45.339Z,100.00
2023-05-06T03:06:47.034Z,100.00
2023-05-06T03:11:49.202Z,100.00
2023-05-06T03:16:51.863Z,100.00
2023-05-06T03:21:58.718Z,100.00
2023-05-06T03:27:01.735Z,100.00
2023-05-06T03:32:04.335Z,100.00
2023-05-06T03:37:10.451Z,100.00
2023-05-06T03:42:17.325Z,100.00
2023-05-06T03:47:20.726Z,100.00
2023-05-06T03:52:22.907Z,100.00
2023-05-06T03:57:29.775Z,100.00
2023-05-06T04:02:36.895Z,100.00
2023-05-06T04:07:41.365Z,100.00
2023-05-06T04:12:43.280Z,100.00
2023-05-06T04:17:47.667Z,100.00
2023-05-06T04:22:52.204Z,100.00
2023-05-06T04:27:55.799Z,100.00
2023-05-06T04:33:04.134Z,100.00
2023-05-06T04:38:09.266Z,100.00
2023-05-06T04:43:13.326Z,100.00
2023-05-06T04:48:19.275Z,100.00
2023-05-06T04:53:21.520Z,100.00
2023-05-06T04:58:25.762Z,100.00
2023-05-06T05:03:28.247Z,100.00
2023-05-06T05:08:36.607Z,100.00
2023-05-06T05:13:44.520Z,100.00
2023-05-06T05:18:46.342Z,100.00
2023-05-06T05:23:55.311Z,100.00
2023-05-06T05:28:57.282Z,100.00
2023-05-06T05:34:01.969Z,100.00
2023-05-06T05:39:06.466Z,100.00
2023-05-06T05:44:16.337Z,100.00
2023-05-06T05:49:20.682Z,100.00
2023-05-06T05:54:25.948Z,100.00
2023-05-06T05:59:31.698Z,100.00
2023-05-06T06:04:39.319Z,100.00
2023-05-06T06:09:41.807Z,100.00
2023-05-06T06:14:47.993Z,100.00
2023-05-06T06:19:57.298Z,100.00
2023-05-06T06:24:59.340Z,100.00
2023-05-06T06:30:01.126Z,100.00
2023-05-06T06:35:03.558Z,100.00
2023-05-06T06:40:08.351Z,100.00
2023-05-06T06:45:11.021Z,100.00
2023-05-06T06:50:13.021Z,100.00
2023-05-06T06:55:16.925Z,100.00
2023-05-06T07:00:18.812Z,100.00
2023-05-06T07:05:23.048Z,100.00
2023-05-06T07:10:24.924Z,100.00
2023-05-06T07:15:31.672Z,100.00
2023-05-06T07:20:33.400Z,100.00
2023-05-06T07:25:37.574Z,100.00
2023-05-06T07:30:41.851Z,100.00
2023-05-06T07:35:48.600Z,100.00
2023-05-06T07:40:51.543Z,100.00
2023-05-06T07:45:58.904Z,100.00
2023-05-06T07:51:00.962Z,100.00
2023-05-06T07:56:03.924Z,100.00
2023-05-06T08:01:06.225Z,100.00
2023-05-06T08:06:08.523Z,100.00
2023-05-06T08:11:12.574Z,100.00
2023-05-06T08:16:14.406Z,100.00
2023-05-06T08:21:17.989Z,100.00
2023-05-06T08:26:22.186Z,100.00
2023-05-06T08:31:28.951Z,100.00
2023-05-06T08:36:35.271Z,99.47
2023-05-06T08:41:40.463Z,97.83
2023-05-06T08:46:46.343Z,96.96
2023-05-06T08:51:50.719Z,96.22
2023-05-06T08:56:53.383Z,94.43
2023-05-06T09:01:55.241Z,92.26
2023-05-06T09:07:02.919Z,90.55
2023-05-06T09:12:12.281Z,89.52
2023-05-06T09:17:24.106Z,88.36
2023-05-06T09:22:30.987Z,88.26
2023-05-06T09:27:42.186Z,87.50
2023-05-06T09:32:44.168Z,86.84
2023-05-06T09:37:45.956Z,85.24
2023-05-06T09:42:47.845Z,84.99
2023-05-06T09:47:53.813Z,82.66
2023-05-06T09:52:56.519Z,80.38
2023-05-06T09:58:00.505Z,78.39
2023-05-06T10:03:05.880Z,78.88
2023-05-06T10:08:08.633Z,78.62
2023-05-06T10:13:10.644Z,78.49
2023-05-06T10:18:13.608Z,77.11
2023-05-06T10:23:32.534Z,77.75
2023-05-06T10:28:39.969Z,78.78
2023-05-06T10:33:45.322Z,79.13
2023-05-06T10:38:54.760Z,81.44
2023-05-06T10:43:57.350Z,83.28
2023-05-06T10:49:13.913Z,82.11
2023-05-06T10:54:21.424Z,78.81
2023-05-06T10:59:28.580Z,78.32
2023-05-06T11:04:31.405Z,78.58
2023-05-06T11:09:33.181Z,78.89
2023-05-06T11:14:38.802Z,76.65
2023-05-06T11:19:40.590Z,75.12
2023-05-06T11:24:44.646Z,73.52
2023-05-06T11:29:46.475Z,70.81
2023-05-06T11:34:48.217Z,70.94
2023-05-06T11:39:52.213Z,71.40
2023-05-06T11:44:56.716Z,69.61
2023-05-06T11:49:59.131Z,68.72
2023-05-06T11:55:00.920Z,67.88
2023-05-06T12:00:04.894Z,64.93
2023-05-06T12:05:13.797Z,62.53
2023-05-06T12:10:17.230Z,61.34
2023-05-06T12:15:19.360Z,58.94
2023-05-06T12:20:21.510Z,59.17
2023-05-06T12:25:23.358Z,55.95
2023-05-06T12:30:32.270Z,53.34
2023-05-06T12:35:34.098Z,51.40
2023-05-06T12:40:38.427Z,48.98
2023-05-06T12:45:42.542Z,45.27
2023-05-06T12:50:45.252Z,44.52
2023-05-06T12:55:46.933Z,42.78
2023-05-06T13:00:48.985Z,40.63
2023-05-06T13:05:53.047Z,38.51
2023-05-06T13:10:54.784Z,37.14
2023-05-06T13:15:58.834Z,36.82
2023-05-06T13:21:00.837Z,37.37
2023-05-06T13:26:06.079Z,36.28
2023-05-06T13:31:13.282Z,35.72
2023-05-06T13:36:17.698Z,35.48
2023-05-06T13:41:19.777Z,35.37
2023-05-06T13:46:23.843Z,34.42
2023-05-06T13:51:30.579Z,33.35
2023-05-06T13:56:32.543Z,31.92
2023-05-06T14:01:34.355Z,30.77
2023-05-06T14:06:36.191Z,29.45
2023-05-06T14:11:42.595Z,29.14
2023-05-06T14:16:46.871Z,27.76
2023-05-06T14:21:48.657Z,27.83
2023-05-06T14:26:50.471Z,27.81
2023-05-06T14:31:54.318Z,27.03
2023-05-06T14:36:56.092Z,27.95
2023-05-06T14:41:58.135Z,27.88
2023-05-06T14:47:02.439Z,28.54
2023-05-06T14:52:04.250Z,27.70
2023-05-06T14:57:06.225Z,27.16
2023-05-06T15:02:11.216Z,28.43
2023-05-06T15:07:13.211Z,27.28
2023-05-06T15:12:17.497Z,26.83
2023-05-06T15:17:19.249Z,26.74
2023-05-06T15:22:23.516Z,27.54
2023-05-06T15:27:27.614Z,26.75
2023-05-06T15:32:29.364Z,26.61
2023-05-06T15:37:35.996Z,26.59
2023-05-06T15:42:38.377Z,27.94
2023-05-06T15:47:40.103Z,28.89
2023-05-06T15:52:45.078Z,29.19
2023-05-06T15:57:46.798Z,29.48
2023-05-06T16:02:50.760Z,28.34
2023-05-06T16:07:55.828Z,30.92
2023-05-06T16:12:57.627Z,30.11
2023-05-06T16:17:59.442Z,34.06
2023-05-06T16:23:03.568Z,37.91
2023-05-06T16:28:08.986Z,39.97
2023-05-06T16:33:12.035Z,41.96
2023-05-06T16:38:13.756Z,42.95
2023-05-06T16:43:15.537Z,44.76
2023-05-06T16:48:17.499Z,46.17
2023-05-06T16:53:19.424Z,47.32
2023-05-06T16:58:21.343Z,49.17
2023-05-06T17:03:23.132Z,49.67
2023-05-06T17:08:26.858Z,50.63
2023-05-06T17:13:31.099Z,50.90
2023-05-06T17:18:33.002Z,51.50
2023-05-06T17:23:37.029Z,53.49
2023-05-06T17:28:38.864Z,54.88
2023-05-06T17:33:40.808Z,56.23
2023-05-06T17:38:43.264Z,56.79
2023-05-06T17:43:47.467Z,58.56
2023-05-06T17:48:49.332Z,60.67
2023-05-06T17:53:51.625Z,61.59
2023-05-06T17:58:56.586Z,62.24
2023-05-06T18:03:58.792Z,62.49
2023-05-06T18:09:03.185Z,64.12
2023-05-06T18:14:05.626Z,64.49
2023-05-06T18:19:07.413Z,66.02
2023-05-06T18:24:15.824Z,66.06
2023-05-06T18:29:22.918Z,67.89
2023-05-06T18:34:26.717Z,68.19
2023-05-06T18:39:28.466Z,69.36
2023-05-06T18:44:32.482Z,69.84
2023-05-06T18:49:36.822Z,69.78
2023-05-06T18:54:39.600Z,71.41
2023-05-06T18:59:41.698Z,71.75
2023-05-06T19:04:43.810Z,72.81
2023-05-06T19:09:45.913Z,73.05
2023-05-06T19:14:50.046Z,74.28
2023-05-06T19:19:51.880Z,74.86
2023-05-06T19:24:55.878Z,75.95
2023-05-06T19:29:59.781Z,77.17
2023-05-06T19:35:08.120Z,77.51
2023-05-06T19:40:13.041Z,77.69
2023-05-06T19:45:18.940Z,78.72
2023-05-06T19:50:23.522Z,79.57
2023-05-06T19:55:27.621Z,80.17
2023-05-06T20:00:30.366Z,81.29
2023-05-06T20:05:32.332Z,82.21
2023-05-06T20:10:37.118Z,82.84
2023-05-06T20:15:38.995Z,82.69
2023-05-06T20:20:40.976Z,83.18
2023-05-06T20:25:42.790Z,83.43
2023-05-06T20:30:44.646Z,84.33
2023-05-06T20:35:48.075Z,84.90
2023-05-06T20:40:50.013Z,85.13
2023-05-06T20:45:51.781Z,85.51
2023-05-06T20:50:54.217Z,85.95
2023-05-06T20:55:55.984Z,86.58
2023-05-06T21:00:57.756Z,86.99
2023-05-06T21:05:59.492Z,87.11
2023-05-06T21:11:01.484Z,87.53
2023-05-06T21:16:03.596Z,88.56
2023-05-06T21:21:05.335Z,89.62
2023-05-06T21:26:07.368Z,89.53
2023-05-06T21:31:09.145Z,90.07
2023-05-06T21:36:10.986Z,90.87
2023-05-06T21:41:14.950Z,90.38
2023-05-06T21:46:16.707Z,91.50
2023-05-06T21:51:18.454Z,91.15
2023-05-06T21:56:20.268Z,91.65
2023-05-06T22:01:22.902Z,92.75
2023-05-06T22:06:24.693Z,93.93
2023-05-06T22:11:26.386Z,94.14
2023-05-06T22:16:31.415Z,93.01
2023-05-06T22:21:33.933Z,94.11
2023-05-06T22:26:35.758Z,94.53
2023-05-06T22:31:37.588Z,95.77
2023-05-06T22:36:41.480Z,96.33
2023-05-06T22:41:45.627Z,95.96
2023-05-06T22:46:51.920Z,96.98
2023-05-06T22:51:53.749Z,96.98
2023-05-06T22:56:55.557Z,97.10
2023-05-06T23:01:57.355Z,97.95
2023-05-06T23:07:01.396Z,98.56
2023-05-06T23:12:06.204Z,99.66
2023-05-06T23:17:10.024Z,99.14
2023-05-06T23:22:11.816Z,98.99
2023-05-06T23:27:13.518Z,99.71
2023-05-06T23:32:15.245Z,99.73
2023-05-06T23:37:17.583Z,99.09
2023-05-06T23:42:22.779Z,100.00
2023-05-06T23:47:24.599Z,100.00
2023-05-06T23:52:26.811Z,100.00
2023-05-06T23:57:34.574Z,100.00
